Terminal Aerodrome Forecast
Issued by NWS

Home | Current Version | Previous Version | Text Only | Print | Product List | Glossary On
Versions: 1 2 3 4 5 6 7 8 9 10 11 12 13 14 15 16 17 18 19 20 21 22 23 24 25 26 27 28 29 30 31 32 33 34 35 36 37 38 39 40 41 42 43 44 45 46 47 48 49 50
000
FTUS44 KHGX 270329 AAA
TAFLBX
TAF AMD
KLBX 270329Z 2703/2724 17013G23KT P6SM BKN025 BKN035
     FM270430 16013KT P6SM BKN018
     FM270800 18008KT P6SM MIFG OVC010
      TEMPO 2709/2713 OVC008
     FM271400 18013KT P6SM BKN020=

USA.gov is the U.S. government's official web portal to all federal, state and local government web resources and services.